Alcot, South Carolina
Current Conditions -  °F | °C
As of 9:35 AM on Sunday 23 Nov 2014 (Local Time) from KCDN Reporting Station
Light Rain Light Rain  
Wind Chill: 50°   Ceiling: 1400
Heat Index: 50°   Visibility: 2.5mi
Dew Point: 50°   Wind: 6mph
Humidity: 100%   Direction: 70°ENE
Pressure: 30.16"   Gusts: NA
Location:  34.2324°N, 80.2824°W
Report Text: KCDN 231435Z AUTO 07005KT 2 1/2SM -RA BKN014 BKN022 OVC045 10/10 A3016 RMK AO2 P0004 TSNO
Loading
Personal Weather Stations






























Interactive Weather Map New forecast layout! Learn more

10-Day Weather Forecast

Advertisements
Track Severe Weather on mobile